• Join FlightAware (Why Join?)
  • Login
  • US Flag 
10:12PM EDT


 

Airport Tracker/Info


-or-


 

Live Flight TrackerFlight Track Log ✈ UAL289 ✈ 25-Apr-2013 ✈ KDEN - KSAN

Flight Track Log - Related Links

Times and Time Zones

All times are in EDT time to prevent confusion due to time zone crossing. See the UAL289 flight status page for this flight to view local times or setup timezone preferences in your user account.

Time Position Orientation Groundspeed Altitude Reporting Facility
EDT Latitude Longitude Course Direction KTS MPH feet Rate Location/Type
10:09PM 39.9333 -104.7000 243° Southwest 203 234 6,700  Level Denver TRACON
10:10PM 39.9833 -104.7167 346° North 266 306 8,600 2,880 Climbing Denver TRACON
10:11PM 40.0372 -104.7453 338° Northwest 273 314 11,300 2,940 Climbing Denver Center
10:12PM 40.0483 -104.8325 279° West 277 319 13,600 1,980 Climbing Denver Center
10:13PM 39.6503 -105.2910 243° Southwest  Level FlightAware Approximate
10:13PM 39.9850 -104.9308 230° Southwest 335 386 15,500  Level Denver Center
10:14PM 39.6021 -105.4113 243° Southwest  Level FlightAware Approximate
10:14PM 39.9236 -105.0306 231° Southwest 352 405 18,400  Level Denver Center
10:15PM 39.8553 -105.1408 231° Southwest 363 418 20,900 2,160 Climbing Denver Center
10:16PM 39.7894 -105.2467 231° Southwest 375 432 22,900 1,440 Climbing Denver Center
10:17PM 39.7172 -105.3606 231° Southwest 380 437 23,900 1,860 Climbing Denver Center
10:18PM 39.6506 -105.4636 230° Southwest 365 420 26,800 2,580 Climbing Denver Center
10:19PM 39.5883 -105.5606 230° Southwest 345 397 29,300 1,560 Climbing Denver Center
10:20PM 39.5361 -105.6711 239° Southwest 367 422 30,100 900 Climbing Denver Center
10:21PM 39.5025 -105.8017 252° West 379 436 31,200 840 Climbing Denver Center
10:22PM 39.4672 -105.9347 251° West 388 447 31,900 1,020 Climbing Denver Center
10:23PM 39.4269 -106.0744 250° West 407 468 33,400 1,320 Climbing Denver Center
10:24PM 39.3817 -106.2347 250° West 412 474 34,700 1,380 Climbing Denver Center
10:25PM 39.3442 -106.3656 250° West 407 468 36,300 1,140 Climbing Denver Center
10:26PM 39.3025 -106.5156 250° West 397 457 37,100 720 Climbing Denver Center
10:27PM 39.2633 -106.6489 249° West 409 471 37,800 420 Climbing Denver Center
10:28PM 39.2103 -106.7703 241° Southwest 414 476 38,000 60 Climbing Denver Center
10:29PM 39.1314 -106.8956 231° Southwest 404 465 38,000  Level Denver Center
10:30PM 39.0608 -107.0039 230° Southwest 408 470 38,000  Level Denver Center
10:31PM 38.9789 -107.1325 231° Southwest 414 476 38,000  Level Denver Center
10:32PM 38.9072 -107.2422 230° Southwest 415 478 38,000  Level Denver Center
10:33PM 38.8264 -107.3669 230° Southwest 409 471 38,000  Level Denver Center
10:34PM 38.7561 -107.4747 230° Southwest 409 471 38,000  Level Denver Center
10:36PM 38.6856 -107.5825 230° Southwest 412 474 38,000  Level Denver Center
10:37PM 38.6028 -107.7078 230° Southwest 412 474 38,000  Level Denver Center
10:38PM 38.5333 -107.8133 230° Southwest 406 467 38,000  Level Denver Center
10:39PM 38.4525 -107.9364 230° Southwest 405 466 38,000  Level Denver Center
10:40PM 38.3822 -108.0411 229° Southwest 405 466 38,000  Level Denver Center
10:41PM 38.3139 -108.1442 230° Southwest 400 460 38,000  Level Denver Center
10:42PM 38.2322 -108.2642 229° Southwest 399 459 38,000  Level Denver Center
10:43PM 38.1628 -108.3656 229° Southwest 397 457 38,000  Level Denver Center
10:44PM 38.0822 -108.4883 230° Southwest 402 463 38,000  Level Denver Center
10:45PM 38.0083 -108.5981 229° Southwest 400 460 38,000  Level Denver Center
10:46PM 37.9375 -108.7000 229° Southwest 402 463 38,000  Level Denver Center
10:47PM 37.8558 -108.8219 230° Southwest 406 467 38,000  Level Denver Center
10:48PM 37.7842 -108.9239 228° Southwest 406 467 38,000  Level Denver Center
10:49PM 37.7133 -109.0264 229° Southwest 406 467 38,000  Level Denver Center
10:50PM 37.6311 -109.1464 229° Southwest 405 466 38,000  Level Denver Center
10:51PM 37.5606 -109.2503 229° Southwest 408 470 38,000  Level Denver Center
10:52PM 37.4778 -109.3689 229° Southwest 406 467 38,000  Level Denver Center
10:53PM 37.4186 -109.4536 229° Southwest 407 468 38,000  Level Denver Center
10:54PM 37.3236 -109.5908 229° Southwest 409 471 38,000  Level Denver Center
10:55PM 37.2522 -109.6933 229° Southwest 409 471 38,000  Level Denver Center
10:56PM 37.1794 -109.7953 228° Southwest 410 472 38,000  Level Denver Center
10:57PM 37.0958 -109.9158 229° Southwest 410 472 38,000  Level Denver Center
10:58PM 37.0233 -110.0172 228° Southwest 409 471 38,000  Level Denver Center
10:59PM 36.9383 -110.1381 229° Southwest 413 475 38,000  Level Denver Center
11:00PM 36.8650 -110.2481 230° Southwest 412 474 38,000  Level Denver Center
11:01PM 36.8194 -110.3461 240° Southwest 411 473 38,000  Level Denver Center
11:02PM 36.7514 -110.4911 240° Southwest 405 466 38,000  Level Denver Center
11:03PM 36.6928 -110.6142 239° Southwest 410 472 38,000  Level Denver Center
11:04PM 36.6367 -110.7350 240° Southwest 406 467 38,000  Level Denver Center
11:05PM 36.5775 -110.8583 239° Southwest 410 472 38,000  Level Denver Center
11:07PM 36.5092 -111.0050 240° Southwest 410 472 38,000  Level Denver Center
11:08PM 36.4386 -111.1528 239° Southwest 413 475 38,000  Level Denver Center
11:09PM 36.3800 -111.2758 239° Southwest 412 474 38,000  Level Denver Center
11:10PM 36.3222 -111.3972 239° Southwest 411 473 38,000  Level Denver Center
11:11PM 36.2614 -111.5206 239° Southwest 416 479 38,000  Level Denver Center
11:12PM 36.2025 -111.6439 239° Southwest 416 479 38,000  Level Denver Center
11:13PM 36.1292 -111.7906 238° Southwest 417 480 38,000  Level Denver Center
11:14PM 36.0717 -111.9125 240° Southwest 413 475 38,000  Level Denver Center
11:14PM 36.0386 -111.9797 239° Southwest 412 474 38,000  Level Los Angeles Center
11:15PM 35.9794 -112.0989 238° Southwest 410 472 38,000  Level Los Angeles Center
11:16PM 35.9197 -112.2164 238° Southwest 408 470 38,000  Level Los Angeles Center
11:17PM 35.8608 -112.3353 239° Southwest 409 471 38,000  Level Los Angeles Center
11:18PM 35.8011 -112.4558 239° Southwest 412 474 38,000  Level Los Angeles Center
11:19PM 35.7300 -112.5992 239° Southwest 412 474 38,000  Level Los Angeles Center
11:21PM 35.6761 -112.7075 239° Southwest 415 478 38,000  Level Los Angeles Center
11:22PM 35.6042 -112.8508 238° Southwest 412 474 38,000  Level Los Angeles Center
11:23PM 35.5514 -112.9539 238° Southwest 415 478 38,000  Level Los Angeles Center
11:24PM 35.4789 -113.0961 238° Southwest 410 472 38,000  Level Los Angeles Center
11:25PM 35.4178 -113.2189 239° Southwest 417 480 38,000  Level Los Angeles Center
11:26PM 35.3603 -113.3306 238° Southwest 411 473 38,000  Level Los Angeles Center
11:27PM 35.2992 -113.4486 238° Southwest 413 475 38,000  Level Los Angeles Center
11:28PM 35.2386 -113.5664 238° Southwest 412 474 38,000  Level Los Angeles Center
11:29PM 35.1781 -113.6853 238° Southwest 414 476 38,000  Level Los Angeles Center
11:30PM 35.1058 -113.8269 238° Southwest 412 474 38,000  Level Los Angeles Center
11:31PM 35.0439 -113.9439 237° Southwest 415 478 38,000  Level Los Angeles Center
11:32PM 34.9764 -114.0742 238° Southwest 413 475 38,000 -360 Level Los Angeles Center
11:33PM 34.9142 -114.1919 237° Southwest 411 473 37,300 -900 Descending Los Angeles Center
11:34PM 34.8528 -114.3094 238° Southwest 410 472 36,200 -1,080 Descending Los Angeles Center
11:35PM 34.7914 -114.4256 237° Southwest 407 468 35,100 -1,020 Descending Los Angeles Center
11:36PM 34.7150 -114.5292 228° Southwest 410 472 34,100 -960 Descending Los Angeles Center
11:37PM 34.6381 -114.6206 224° Southwest 410 472 33,200 -1,080 Descending Los Angeles Center
11:38PM 34.5381 -114.7347 223° Southwest 411 473 31,900 -1,020 Descending Los Angeles Center
11:39PM 34.4550 -114.8264 222° Southwest 406 467 31,100 -780 Descending Los Angeles Center
11:40PM 34.3736 -114.9208 224° Southwest 406 467 30,400 -600 Descending Los Angeles Center
11:41PM 34.2911 -115.0128 223° Southwest 403 464 29,900 -240 Descending Los Angeles Center
11:42PM 34.2097 -115.1047 223° Southwest 403 464 30,000  Climbing Los Angeles Center
11:43PM 34.1297 -115.1958 223° Southwest 396 456 30,000  Level Los Angeles Center
11:44PM 34.0322 -115.3031 222° Southwest 397 457 30,000  Level Los Angeles Center
11:45PM 33.9525 -115.3917 223° Southwest 392 451 30,000  Level Los Angeles Center
11:46PM 33.8719 -115.4800 222° Southwest 393 452 30,000  Level Los Angeles Center
11:47PM 33.7925 -115.5689 223° Southwest 390 449 30,000 -60 Level Los Angeles Center
11:48PM 33.7136 -115.6556 222° Southwest 385 443 29,900 -840 Descending Los Angeles Center
11:49PM 33.6408 -115.7375 223° Southwest 363 418 28,300 -1,740 Descending Los Angeles Center
11:50PM 33.5811 -115.8253 231° Southwest 342 394 26,400 -2,100 Descending Los Angeles Center
11:51PM 33.5178 -115.9361 236° Southwest 338 389 24,100 -1,200 Descending Los Angeles Center
11:52PM 33.4658 -116.0269 236° Southwest 333 383 24,000 -1,020 Descending Los Angeles Center
11:53PM 33.3969 -116.1042 223° Southwest 346 398 22,000 -2,040 Descending Los Angeles Center
11:55PM 33.3158 -116.1750 216° Southwest 363 418 19,800 -2,100 Descending Los Angeles Center
11:56PM 33.2350 -116.2444 216° Southwest 359 413 17,700 -2,040 Descending Los Angeles Center
11:57PM 33.1558 -116.3117 215° Southwest 353 406 15,700 -2,100 Descending Los Angeles Center
11:58PM 33.0636 -116.3925 216° Southwest 347 399 13,400 -1,800 Descending Los Angeles Center
11:59PM 32.9972 -116.4472 215° Southwest 342 394 12,000 -1,260 Descending Los Angeles Center
12:00AM 32.9017 -116.5042 207° Southwest 320 368 10,900 -1,140 Descending Los Angeles Center
12:01AM 32.8372 -116.5500 211° Southwest 312 359 9,700 -1,200 Descending Los Angeles Center
12:02AM 32.7972 -116.6319 240° Southwest 289 333 8,500 -1,320 Descending Los Angeles Center
12:03AM 32.7486 -116.7283 239° Southwest 284 327 7,000 -1,020 Descending Los Angeles Center
12:04AM 32.7136 -116.8056 242° Southwest 273 314 6,500 -420 Descending Los Angeles Center
12:05AM 32.6911 -116.8728 248° West 233 268 6,200 -420 Descending Los Angeles Center
12:05AM 32.6833 -116.9000 251° West 200 230 5,900 -960 Descending Southern California TRACON
12:06AM 32.6833 -116.9667 270° West 180 207 4,800 -1,200 Descending Southern California TRACON
12:07AM 32.7000 -117.0167 292° West 185 213 3,600 -1,260 Descending Southern California TRACON
12:08AM 32.7000 -117.0833 270° West 180 207 2,400 -1,200 Descending Southern California TRACON
12:09AM 32.7167 -117.1333 292° West 144 166 1,100 -1,080 Descending Southern California TRACON
12:10AM 32.7264 -117.1550 298° West 141 162 600 -840 Descending Los Angeles Center